createdAt,value
2022-08-22T00:08:50.877Z,983.2
2022-08-22T00:23:14.248Z,983.2
2022-08-22T00:37:42.112Z,983.1
2022-08-22T00:52:09.719Z,983.1
2022-08-22T01:06:38.622Z,983.1
2022-08-22T01:21:08.433Z,983
2022-08-22T01:35:37.790Z,982.9
2022-08-22T01:50:05.217Z,982.9
2022-08-22T02:04:33.691Z,982.9
2022-08-22T02:19:01.906Z,982.9
2022-08-22T02:33:28.449Z,982.8
2022-08-22T02:48:02.374Z,982.7
2022-08-22T03:02:33.625Z,982.7
2022-08-22T03:16:57.884Z,982.5
2022-08-22T03:31:25.453Z,982.5
2022-08-22T03:45:54.115Z,982.5
2022-08-22T04:00:23.263Z,982.5
2022-08-22T04:14:51.779Z,982.5
2022-08-22T04:29:19.089Z,982.4
2022-08-22T04:43:53.872Z,982.4
2022-08-22T04:58:23.757Z,982.5
2022-08-22T05:12:46.103Z,982.6
2022-08-22T05:27:13.107Z,982.7
2022-08-22T05:41:29.070Z,982.7
2022-08-22T05:55:58.356Z,982.7
2022-08-22T06:10:27.695Z,982.7
2022-08-22T06:25:03.124Z,982.6
2022-08-22T06:39:29.131Z,982.7
2022-08-22T06:54:06.618Z,982.9
2022-08-22T07:08:40.372Z,982.8
2022-08-22T07:23:14.296Z,982.8
2022-08-22T07:37:39.410Z,982.8
2022-08-22T07:52:18.014Z,982.8
2022-08-22T08:06:47.038Z,982.8
2022-08-22T08:21:11.425Z,982.9
2022-08-22T08:36:04.235Z,982.8
2022-08-22T08:50:24.041Z,982.7
2022-08-22T09:04:53.779Z,982.5
2022-08-22T09:19:27.966Z,982.5
2022-08-22T09:33:53.265Z,982.3
2022-08-22T09:48:26.881Z,982.3
2022-08-22T10:02:55.929Z,982.2
2022-08-22T10:17:23.167Z,982.1
2022-08-22T10:32:01.352Z,982.1
2022-08-22T10:46:29.987Z,982
2022-08-22T11:00:59.919Z,981.9
2022-08-22T11:15:35.545Z,981.8
2022-08-22T11:30:02.652Z,981.8
2022-08-22T11:44:50.004Z,981.7
2022-08-22T11:59:05.567Z,981.7
2022-08-22T12:13:35.748Z,981.5
2022-08-22T12:28:08.864Z,981.5
2022-08-22T12:42:42.068Z,981.3
2022-08-22T12:57:25.273Z,981.1
2022-08-22T13:11:42.925Z,981.1
2022-08-22T13:26:40.776Z,981
2022-08-22T13:40:55.637Z,981
2022-08-22T13:55:30.346Z,980.9
2022-08-22T14:09:54.848Z,980.8
2022-08-22T14:24:27.571Z,980.7
2022-08-22T14:38:53.627Z,980.7
2022-08-22T14:53:25.477Z,980.6
2022-08-22T15:07:49.810Z,980.6
2022-08-22T15:22:27.868Z,980.5
2022-08-22T15:36:56.203Z,980.4
2022-08-22T15:51:24.120Z,980.4
2022-08-22T16:05:55.921Z,980.4
2022-08-22T16:20:20.561Z,980.4
2022-08-22T16:34:45.681Z,980.4
2022-08-22T16:49:12.602Z,980.4
2022-08-22T17:03:47.661Z,980.5
2022-08-22T17:18:17.459Z,980.4
2022-08-22T17:33:00.278Z,980.4
2022-08-22T17:47:24.097Z,980.4
2022-08-22T18:01:48.026Z,980.5
2022-08-22T18:16:15.492Z,980.4
2022-08-22T18:30:42.404Z,980.6
2022-08-22T18:45:10.699Z,980.6
2022-08-22T18:59:37.248Z,980.8
2022-08-22T19:14:03.364Z,980.8
2022-08-22T19:28:32.369Z,980.9
2022-08-22T19:43:09.297Z,981
2022-08-22T19:57:32.311Z,981
2022-08-22T20:12:01.024Z,981
2022-08-22T20:26:29.281Z,980.9
2022-08-22T20:41:01.008Z,980.9
2022-08-22T20:55:32.207Z,980.8
2022-08-22T21:09:55.988Z,980.8
2022-08-22T21:24:24.273Z,980.8
2022-08-22T21:38:52.887Z,980.9
2022-08-22T21:53:19.084Z,980.8
2022-08-22T22:07:45.078Z,980.8
2022-08-22T22:22:14.146Z,980.9
2022-08-22T22:36:42.492Z,981
2022-08-22T22:51:16.062Z,981
2022-08-22T23:05:45.851Z,981
2022-08-22T23:20:09.756Z,981.2
2022-08-22T23:34:37.410Z,981.2
2022-08-22T23:49:06.134Z,981.2
